sensor_id;sensor_type;location;lat;lon;timestamp;pressure;altitude;pressure_sealevel;temperature;humidity
84855;BME280;75112;42.668;23.356;2024-03-25T00:06:51;93999.91;;;4.52;76.66
84855;BME280;75112;42.668;23.356;2024-03-25T00:09:19;93966.22;;;4.02;77.41
84855;BME280;75112;42.668;23.356;2024-03-25T00:22:38;94004.03;;;4.60;76.02
84855;BME280;75112;42.668;23.356;2024-03-25T00:25:22;93947.50;;;4.22;77.02
84855;BME280;75112;42.668;23.356;2024-03-25T00:27:47;93934.31;;;4.18;77.47
84855;BME280;75112;42.668;23.356;2024-03-25T00:30:13;93991.41;;;4.58;78.11
84855;BME280;75112;42.668;23.356;2024-03-25T00:32:38;93981.19;;;4.52;77.75
84855;BME280;75112;42.668;23.356;2024-03-25T00:35:04;93982.75;;;4.59;78.45
84855;BME280;75112;42.668;23.356;2024-03-25T00:37:30;93970.13;;;4.65;77.27
84855;BME280;75112;42.668;23.356;2024-03-25T00:39:55;93967.75;;;4.70;77.17
84855;BME280;75112;42.668;23.356;2024-03-25T00:42:21;93960.25;;;4.75;76.69
84855;BME280;75112;42.668;23.356;2024-03-25T00:44:46;93962.41;;;4.78;77.00
84855;BME280;75112;42.668;23.356;2024-03-25T00:47:12;93958.28;;;4.83;77.83
84855;BME280;75112;42.668;23.356;2024-03-25T00:49:37;93955.09;;;4.88;77.93
84855;BME280;75112;42.668;23.356;2024-03-25T00:52:04;93954.66;;;4.98;77.38
84855;BME280;75112;42.668;23.356;2024-03-25T00:54:29;93949.13;;;5.01;76.60
84855;BME280;75112;42.668;23.356;2024-03-25T00:56:54;93949.91;;;5.01;76.56
84855;BME280;75112;42.668;23.356;2024-03-25T00:59:20;93952.28;;;5.03;78.13
84855;BME280;75112;42.668;23.356;2024-03-25T01:01:46;93957.78;;;5.06;76.45
84855;BME280;75112;42.668;23.356;2024-03-25T01:04:11;93963.31;;;5.03;77.47
84855;BME280;75112;42.668;23.356;2024-03-25T01:06:36;93959.41;;;4.94;78.01
84855;BME280;75112;42.668;23.356;2024-03-25T01:09:03;93939.91;;;4.93;78.40
84855;BME280;75112;42.668;23.356;2024-03-25T01:11:30;93940.25;;;5.03;78.27
84855;BME280;75112;42.668;23.356;2024-03-25T01:13:56;93896.91;;;4.89;77.51
84855;BME280;75112;42.668;23.356;2024-03-25T01:16:21;93873.84;;;4.89;77.15
84855;BME280;75112;42.668;23.356;2024-03-25T01:18:47;93879.03;;;5.14;77.69
84855;BME280;75112;42.668;23.356;2024-03-25T01:21:12;93914.78;;;5.47;77.98
84855;BME280;75112;42.668;23.356;2024-03-25T01:23:38;93916.16;;;5.49;78.23
84855;BME280;75112;42.668;23.356;2024-03-25T01:26:03;93912.72;;;5.30;78.79
84855;BME280;75112;42.668;23.356;2024-03-25T01:28:29;93914.25;;;5.38;77.94
84855;BME280;75112;42.668;23.356;2024-03-25T01:30:54;93945.25;;;5.68;77.26
84855;BME280;75112;42.668;23.356;2024-03-25T01:33:19;93939.31;;;5.74;77.78
84855;BME280;75112;42.668;23.356;2024-03-25T01:35:45;93927.88;;;5.70;76.79
84855;BME280;75112;42.668;23.356;2024-03-25T01:38:10;93886.88;;;5.57;76.38
84855;BME280;75112;42.668;23.356;2024-03-25T01:40:36;93940.56;;;5.97;76.34
84855;BME280;75112;42.668;23.356;2024-03-25T01:43:03;93946.53;;;5.84;77.73
84855;BME280;75112;42.668;23.356;2024-03-25T01:45:31;93946.13;;;5.87;77.80
84855;BME280;75112;42.668;23.356;2024-03-25T01:47:58;93937.22;;;5.96;77.87
84855;BME280;75112;42.668;23.356;2024-03-25T01:50:24;93928.72;;;5.96;77.08
84855;BME280;75112;42.668;23.356;2024-03-25T01:52:51;93897.13;;;5.64;77.32
84855;BME280;75112;42.668;23.356;2024-03-25T01:55:28;93937.53;;;6.07;76.54
84855;BME280;75112;42.668;23.356;2024-03-25T01:57:56;93940.53;;;6.04;76.62
84855;BME280;75112;42.668;23.356;2024-03-25T02:00:28;93942.41;;;6.15;76.30
84855;BME280;75112;42.668;23.356;2024-03-25T02:02:57;93958.00;;;6.20;77.07
84855;BME280;75112;42.668;23.356;2024-03-25T02:05:23;93962.81;;;6.10;77.27
84855;BME280;75112;42.668;23.356;2024-03-25T02:07:49;93938.59;;;5.92;75.78
84855;BME280;75112;42.668;23.356;2024-03-25T02:10:15;93948.28;;;5.90;76.60
84855;BME280;75112;42.668;23.356;2024-03-25T02:12:45;93968.81;;;5.90;75.73
84855;BME280;75112;42.668;23.356;2024-03-25T02:15:11;93982.44;;;5.59;77.40
84855;BME280;75112;42.668;23.356;2024-03-25T02:17:38;93980.09;;;5.58;75.91
84855;BME280;75112;42.668;23.356;2024-03-25T02:20:05;93979.16;;;5.39;77.08
84855;BME280;75112;42.668;23.356;2024-03-25T02:22:32;93959.72;;;5.24;77.45
84855;BME280;75112;42.668;23.356;2024-03-25T02:24:59;93962.88;;;5.20;78.01
84855;BME280;75112;42.668;23.356;2024-03-25T02:27:25;93961.91;;;5.21;77.12
84855;BME280;75112;42.668;23.356;2024-03-25T02:29:53;93956.59;;;5.09;78.65
84855;BME280;75112;42.668;23.356;2024-03-25T02:32:18;93964.09;;;5.04;75.64
84855;BME280;75112;42.668;23.356;2024-03-25T02:34:51;93952.47;;;5.01;76.23
84855;BME280;75112;42.668;23.356;2024-03-25T02:37:18;93958.19;;;5.03;77.48
84855;BME280;75112;42.668;23.356;2024-03-25T02:39:44;93971.38;;;5.14;76.98
84855;BME280;75112;42.668;23.356;2024-03-25T02:42:13;93970.81;;;4.98;76.98
84855;BME280;75112;42.668;23.356;2024-03-25T02:44:42;93976.16;;;5.03;76.35
84855;BME280;75112;42.668;23.356;2024-03-25T02:47:08;93965.13;;;4.96;76.82
84855;BME280;75112;42.668;23.356;2024-03-25T02:49:34;93971.81;;;4.97;79.19
84855;BME280;75112;42.668;23.356;2024-03-25T02:52:00;93974.56;;;5.09;78.34
84855;BME280;75112;42.668;23.356;2024-03-25T02:54:29;94000.34;;;5.27;77.49
84855;BME280;75112;42.668;23.356;2024-03-25T02:56:55;93988.50;;;5.26;75.17
84855;BME280;75112;42.668;23.356;2024-03-25T02:59:22;93961.13;;;5.14;76.30
84855;BME280;75112;42.668;23.356;2024-03-25T03:01:52;93947.97;;;4.97;75.51
84855;BME280;75112;42.668;23.356;2024-03-25T03:04:20;93927.09;;;4.80;76.43
84855;BME280;75112;42.668;23.356;2024-03-25T03:06:49;93920.25;;;4.67;77.25
84855;BME280;75112;42.668;23.356;2024-03-25T03:09:15;93956.47;;;4.91;75.21
84855;BME280;75112;42.668;23.356;2024-03-25T03:11:41;93933.69;;;4.56;76.35
84855;BME280;75112;42.668;23.356;2024-03-25T03:14:10;93961.47;;;4.66;75.27
84855;BME280;75112;42.668;23.356;2024-03-25T03:16:36;94001.19;;;5.01;75.71
84855;BME280;75112;42.668;23.356;2024-03-25T03:19:02;93982.72;;;4.73;75.12
84855;BME280;75112;42.668;23.356;2024-03-25T03:21:36;94002.81;;;4.89;76.49
84855;BME280;75112;42.668;23.356;2024-03-25T03:24:10;93994.13;;;4.90;75.51
84855;BME280;75112;42.668;23.356;2024-03-25T03:26:40;93978.59;;;4.78;76.53
84855;BME280;75112;42.668;23.356;2024-03-25T03:29:09;93983.50;;;4.87;74.78
84855;BME280;75112;42.668;23.356;2024-03-25T03:31:34;94017.78;;;4.99;76.02
84855;BME280;75112;42.668;23.356;2024-03-25T03:34:00;94004.41;;;4.77;77.06
84855;BME280;75112;42.668;23.356;2024-03-25T03:36:25;93995.53;;;4.93;76.65
84855;BME280;75112;42.668;23.356;2024-03-25T03:38:51;93981.91;;;4.99;75.95
84855;BME280;75112;42.668;23.356;2024-03-25T03:41:16;94007.78;;;5.36;76.79
84855;BME280;75112;42.668;23.356;2024-03-25T03:43:42;93984.56;;;5.24;76.33
84855;BME280;75112;42.668;23.356;2024-03-25T03:46:07;93997.16;;;5.32;75.94
84855;BME280;75112;42.668;23.356;2024-03-25T03:48:33;93988.66;;;5.31;74.85
84855;BME280;75112;42.668;23.356;2024-03-25T03:50:59;93995.97;;;5.35;74.43
84855;BME280;75112;42.668;23.356;2024-03-25T03:53:25;94032.34;;;5.70;74.51
84855;BME280;75112;42.668;23.356;2024-03-25T03:55:59;94018.59;;;5.51;72.81
84855;BME280;75112;42.668;23.356;2024-03-25T03:58:25;93971.78;;;5.11;74.95
84855;BME280;75112;42.668;23.356;2024-03-25T04:00:51;94001.13;;;5.28;75.95
84855;BME280;75112;42.668;23.356;2024-03-25T04:03:18;93995.63;;;5.24;73.91
84855;BME280;75112;42.668;23.356;2024-03-25T04:05:45;93973.78;;;4.95;74.21
84855;BME280;75112;42.668;23.356;2024-03-25T04:08:11;94046.28;;;5.36;73.19
84855;BME280;75112;42.668;23.356;2024-03-25T04:10:37;94067.59;;;5.43;74.01
84855;BME280;75112;42.668;23.356;2024-03-25T04:13:06;93987.41;;;5.02;74.91
84855;BME280;75112;42.668;23.356;2024-03-25T04:15:35;94015.91;;;5.26;72.46
84855;BME280;75112;42.668;23.356;2024-03-25T04:18:02;93990.94;;;5.01;73.08
84855;BME280;75112;42.668;23.356;2024-03-25T04:20:29;94064.91;;;5.11;72.86
84855;BME280;75112;42.668;23.356;2024-03-25T04:22:56;94056.25;;;4.99;72.74
84855;BME280;75112;42.668;23.356;2024-03-25T04:25:23;94068.09;;;4.93;74.53
84855;BME280;75112;42.668;23.356;2024-03-25T04:27:51;94009.16;;;4.60;72.63
84855;BME280;75112;42.668;23.356;2024-03-25T04:30:18;94052.91;;;4.78;74.00
84855;BME280;75112;42.668;23.356;2024-03-25T04:32:43;94051.31;;;4.91;74.94
84855;BME280;75112;42.668;23.356;2024-03-25T04:35:08;94023.31;;;4.82;72.77
84855;BME280;75112;42.668;23.356;2024-03-25T04:41:12;94067.09;;;4.88;73.23
84855;BME280;75112;42.668;23.356;2024-03-25T04:46:37;94069.69;;;4.81;72.01
84855;BME280;75112;42.668;23.356;2024-03-25T04:49:25;94077.75;;;4.65;71.57
84855;BME280;75112;42.668;23.356;2024-03-25T04:51:51;94120.34;;;5.05;71.98
84855;BME280;75112;42.668;23.356;2024-03-25T04:54:18;94107.34;;;4.94;72.69
84855;BME280;75112;42.668;23.356;2024-03-25T04:56:45;94103.38;;;4.98;72.92
84855;BME280;75112;42.668;23.356;2024-03-25T04:59:12;94129.03;;;5.18;72.40
84855;BME280;75112;42.668;23.356;2024-03-25T05:01:38;94103.78;;;4.95;73.31
84855;BME280;75112;42.668;23.356;2024-03-25T05:04:03;94136.69;;;5.31;71.26
84855;BME280;75112;42.668;23.356;2024-03-25T05:06:29;94136.47;;;5.32;73.21
84855;BME280;75112;42.668;23.356;2024-03-25T05:08:54;94126.44;;;5.31;72.17
84855;BME280;75112;42.668;23.356;2024-03-25T05:11:19;94135.88;;;5.37;72.04
84855;BME280;75112;42.668;23.356;2024-03-25T05:13:45;94124.84;;;5.17;70.84
84855;BME280;75112;42.668;23.356;2024-03-25T05:16:10;94138.09;;;5.27;71.33
84855;BME280;75112;42.668;23.356;2024-03-25T05:18:36;94106.16;;;4.96;72.08
84855;BME280;75112;42.668;23.356;2024-03-25T05:21:11;94093.50;;;5.01;71.77
84855;BME280;75112;42.668;23.356;2024-03-25T05:23:40;94101.78;;;5.10;71.26
84855;BME280;75112;42.668;23.356;2024-03-25T05:26:05;94141.81;;;5.38;70.70
84855;BME280;75112;42.668;23.356;2024-03-25T05:28:30;94138.84;;;5.34;71.92
84855;BME280;75112;42.668;23.356;2024-03-25T05:30:56;94137.09;;;5.21;71.95
84855;BME280;75112;42.668;23.356;2024-03-25T05:33:21;94139.84;;;5.33;70.88
84855;BME280;75112;42.668;23.356;2024-03-25T05:35:47;94138.09;;;5.27;70.67
84855;BME280;75112;42.668;23.356;2024-03-25T05:38:12;94141.22;;;5.22;70.76
84855;BME280;75112;42.668;23.356;2024-03-25T05:40:37;94134.53;;;5.21;70.09
84855;BME280;75112;42.668;23.356;2024-03-25T05:43:05;94095.91;;;4.96;69.62
84855;BME280;75112;42.668;23.356;2024-03-25T05:45:33;94147.53;;;5.20;70.80
84855;BME280;75112;42.668;23.356;2024-03-25T05:47:58;94135.69;;;5.32;69.75
84855;BME280;75112;42.668;23.356;2024-03-25T05:50:23;94151.88;;;5.39;69.40
84855;BME280;75112;42.668;23.356;2024-03-25T05:52:49;94162.34;;;5.31;69.86
84855;BME280;75112;42.668;23.356;2024-03-25T05:55:14;94167.66;;;5.29;69.85
84855;BME280;75112;42.668;23.356;2024-03-25T05:57:39;94152.09;;;5.04;70.13
84855;BME280;75112;42.668;23.356;2024-03-25T06:00:05;94161.75;;;5.16;70.20
84855;BME280;75112;42.668;23.356;2024-03-25T06:02:32;94168.28;;;5.12;68.76
84855;BME280;75112;42.668;23.356;2024-03-25T06:04:58;94152.50;;;4.95;69.55
84855;BME280;75112;42.668;23.356;2024-03-25T06:07:23;94146.78;;;4.93;68.12
84855;BME280;75112;42.668;23.356;2024-03-25T06:09:49;94164.31;;;5.16;68.38
84855;BME280;75112;42.668;23.356;2024-03-25T06:12:14;94198.47;;;5.36;68.36
84855;BME280;75112;42.668;23.356;2024-03-25T06:14:39;94196.47;;;5.38;69.02
84855;BME280;75112;42.668;23.356;2024-03-25T06:17:05;94183.25;;;5.28;69.27
84855;BME280;75112;42.668;23.356;2024-03-25T06:19:30;94201.97;;;5.62;67.87
84855;BME280;75112;42.668;23.356;2024-03-25T06:21:57;94202.25;;;6.18;67.27
84855;BME280;75112;42.668;23.356;2024-03-25T06:24:24;94190.47;;;6.42;63.89
84855;BME280;75112;42.668;23.356;2024-03-25T06:26:51;94226.78;;;6.98;63.04
84855;BME280;75112;42.668;23.356;2024-03-25T06:29:16;94191.28;;;7.56;60.79
84855;BME280;75112;42.668;23.356;2024-03-25T06:31:42;94212.50;;;8.32;59.48
84855;BME280;75112;42.668;23.356;2024-03-25T06:34:26;94194.41;;;7.40;58.16
84855;BME280;75112;42.668;23.356;2024-03-25T06:36:51;94217.81;;;7.57;61.50
84855;BME280;75112;42.668;23.356;2024-03-25T06:39:17;94224.59;;;7.76;60.27
84855;BME280;75112;42.668;23.356;2024-03-25T06:41:43;94209.75;;;7.72;58.55
84855;BME280;75112;42.668;23.356;2024-03-25T06:44:09;94225.06;;;7.17;60.48
84855;BME280;75112;42.668;23.356;2024-03-25T06:46:34;94243.59;;;7.75;61.38
84855;BME280;75112;42.668;23.356;2024-03-25T06:49:00;94240.72;;;8.27;60.17
84855;BME280;75112;42.668;23.356;2024-03-25T06:51:26;94202.75;;;8.83;54.98
84855;BME280;75112;42.668;23.356;2024-03-25T06:53:51;94191.38;;;8.23;56.51
84855;BME280;75112;42.668;23.356;2024-03-25T06:56:17;94211.28;;;8.53;57.62
84855;BME280;75112;42.668;23.356;2024-03-25T06:58:42;94226.09;;;8.88;55.36
84855;BME280;75112;42.668;23.356;2024-03-25T07:01:09;94248.19;;;9.26;54.99
84855;BME280;75112;42.668;23.356;2024-03-25T07:03:37;94208.72;;;9.37;52.90
84855;BME280;75112;42.668;23.356;2024-03-25T07:06:05;94240.28;;;10.33;52.23
84855;BME280;75112;42.668;23.356;2024-03-25T07:08:31;94246.59;;;9.90;52.05
84855;BME280;75112;42.668;23.356;2024-03-25T07:10:57;94240.59;;;9.54;53.80
84855;BME280;75112;42.668;23.356;2024-03-25T07:13:23;94238.06;;;9.12;56.08
84855;BME280;75112;42.668;23.356;2024-03-25T07:15:48;94238.91;;;9.48;55.19
84855;BME280;75112;42.668;23.356;2024-03-25T07:18:14;94243.00;;;9.67;55.33
84855;BME280;75112;42.668;23.356;2024-03-25T07:20:40;94236.81;;;9.68;54.85
84855;BME280;75112;42.668;23.356;2024-03-25T07:23:06;94250.56;;;9.27;54.70
84855;BME280;75112;42.668;23.356;2024-03-25T07:25:31;94243.25;;;9.12;55.29
84855;BME280;75112;42.668;23.356;2024-03-25T07:27:57;94239.19;;;8.74;54.06
84855;BME280;75112;42.668;23.356;2024-03-25T07:30:22;94251.44;;;9.09;54.13
84855;BME280;75112;42.668;23.356;2024-03-25T07:32:52;94260.34;;;9.25;54.46
84855;BME280;75112;42.668;23.356;2024-03-25T07:35:18;94247.75;;;9.29;54.18
84855;BME280;75112;42.668;23.356;2024-03-25T07:37:44;94261.72;;;9.51;51.59
84855;BME280;75112;42.668;23.356;2024-03-25T07:40:09;94248.38;;;9.42;52.01
84855;BME280;75112;42.668;23.356;2024-03-25T07:42:40;94269.03;;;9.66;52.99
84855;BME280;75112;42.668;23.356;2024-03-25T07:45:06;94263.44;;;9.81;52.07
84855;BME280;75112;42.668;23.356;2024-03-25T07:47:32;94269.28;;;10.00;51.79
84855;BME280;75112;42.668;23.356;2024-03-25T07:49:58;94263.13;;;10.01;53.02
84855;BME280;75112;42.668;23.356;2024-03-25T07:52:24;94264.44;;;10.50;53.22
84855;BME280;75112;42.668;23.356;2024-03-25T07:54:53;94272.75;;;11.21;50.69
84855;BME280;75112;42.668;23.356;2024-03-25T07:57:19;94287.31;;;11.73;49.42
84855;BME280;75112;42.668;23.356;2024-03-25T07:59:45;94282.81;;;11.68;46.55
84855;BME280;75112;42.668;23.356;2024-03-25T08:02:11;94268.38;;;11.72;46.25
84855;BME280;75112;42.668;23.356;2024-03-25T08:04:36;94269.88;;;11.85;48.33
84855;BME280;75112;42.668;23.356;2024-03-25T08:07:01;94278.00;;;11.89;46.31
84855;BME280;75112;42.668;23.356;2024-03-25T08:09:28;94279.63;;;10.87;48.67
84855;BME280;75112;42.668;23.356;2024-03-25T08:11:53;94275.00;;;11.18;49.25
84855;BME280;75112;42.668;23.356;2024-03-25T08:14:19;94279.28;;;11.41;50.62
84855;BME280;75112;42.668;23.356;2024-03-25T08:16:44;94294.66;;;11.31;47.41
84855;BME280;75112;42.668;23.356;2024-03-25T08:19:10;94306.34;;;10.76;49.59
84855;BME280;75112;42.668;23.356;2024-03-25T08:21:35;94283.13;;;10.29;49.88
84855;BME280;75112;42.668;23.356;2024-03-25T08:24:00;94290.63;;;10.94;49.94
84855;BME280;75112;42.668;23.356;2024-03-25T08:26:26;94294.97;;;11.51;49.22
84855;BME280;75112;42.668;23.356;2024-03-25T08:28:51;94286.69;;;12.00;48.58
84855;BME280;75112;42.668;23.356;2024-03-25T08:31:17;94262.56;;;11.65;48.94
84855;BME280;75112;42.668;23.356;2024-03-25T08:33:43;94270.09;;;11.50;47.17
84855;BME280;75112;42.668;23.356;2024-03-25T08:36:08;94292.41;;;11.05;48.27
84855;BME280;75112;42.668;23.356;2024-03-25T08:38:34;94297.09;;;11.37;51.08
84855;BME280;75112;42.668;23.356;2024-03-25T08:40:59;94284.03;;;11.94;49.02
84855;BME280;75112;42.668;23.356;2024-03-25T08:43:25;94274.25;;;11.34;48.37
84855;BME280;75112;42.668;23.356;2024-03-25T08:45:50;94284.41;;;11.52;48.12
84855;BME280;75112;42.668;23.356;2024-03-25T08:48:16;94275.00;;;11.18;48.41
84855;BME280;75112;42.668;23.356;2024-03-25T08:50:42;94296.38;;;11.25;47.44
84855;BME280;75112;42.668;23.356;2024-03-25T08:53:07;94263.63;;;11.19;47.28
84855;BME280;75112;42.668;23.356;2024-03-25T08:55:33;94307.91;;;11.80;47.68
84855;BME280;75112;42.668;23.356;2024-03-25T08:57:59;94298.22;;;11.58;47.98
84855;BME280;75112;42.668;23.356;2024-03-25T09:00:27;94299.66;;;11.83;46.61
84855;BME280;75112;42.668;23.356;2024-03-25T09:02:53;94286.22;;;11.52;45.21
84855;BME280;75112;42.668;23.356;2024-03-25T09:05:20;94318.88;;;11.53;46.36
84855;BME280;75112;42.668;23.356;2024-03-25T09:07:46;94316.00;;;11.83;48.81
84855;BME280;75112;42.668;23.356;2024-03-25T09:10:15;94313.66;;;11.36;46.48
84855;BME280;75112;42.668;23.356;2024-03-25T09:12:59;94321.13;;;10.92;46.04
84855;BME280;75112;42.668;23.356;2024-03-25T09:15:24;94316.41;;;10.89;49.52
84855;BME280;75112;42.668;23.356;2024-03-25T09:17:50;94324.56;;;10.81;48.42
84855;BME280;75112;42.668;23.356;2024-03-25T09:20:15;94322.78;;;11.10;47.20
84855;BME280;75112;42.668;23.356;2024-03-25T09:22:46;94335.78;;;11.27;46.96
84855;BME280;75112;42.668;23.356;2024-03-25T09:25:14;94329.91;;;10.39;47.98
84855;BME280;75112;42.668;23.356;2024-03-25T09:27:39;94321.75;;;9.77;49.15
84855;BME280;75112;42.668;23.356;2024-03-25T09:30:06;94341.56;;;10.06;50.12
84855;BME280;75112;42.668;23.356;2024-03-25T09:32:32;94341.47;;;10.48;51.26
84855;BME280;75112;42.668;23.356;2024-03-25T09:34:58;94346.06;;;10.11;45.82
84855;BME280;75112;42.668;23.356;2024-03-25T09:37:23;94353.81;;;10.70;49.92
84855;BME280;75112;42.668;23.356;2024-03-25T09:39:49;94338.16;;;10.88;45.84
84855;BME280;75112;42.668;23.356;2024-03-25T09:42:15;94327.50;;;10.73;48.46
84855;BME280;75112;42.668;23.356;2024-03-25T09:44:43;94322.16;;;10.91;46.70
84855;BME280;75112;42.668;23.356;2024-03-25T09:47:09;94301.66;;;10.02;48.01
84855;BME280;75112;42.668;23.356;2024-03-25T09:49:39;94317.72;;;10.75;49.42
84855;BME280;75112;42.668;23.356;2024-03-25T09:52:06;94335.97;;;10.56;46.25
84855;BME280;75112;42.668;23.356;2024-03-25T09:54:31;94327.84;;;10.53;47.98
84855;BME280;75112;42.668;23.356;2024-03-25T09:57:01;94341.53;;;10.77;48.71
84855;BME280;75112;42.668;23.356;2024-03-25T09:59:27;94323.41;;;10.89;47.32
84855;BME280;75112;42.668;23.356;2024-03-25T10:01:54;94314.59;;;10.90;46.16
84855;BME280;75112;42.668;23.356;2024-03-25T10:04:20;94306.69;;;10.56;44.88
84855;BME280;75112;42.668;23.356;2024-03-25T10:06:45;94317.41;;;10.59;46.90
84855;BME280;75112;42.668;23.356;2024-03-25T10:09:11;94319.13;;;10.82;45.74
84855;BME280;75112;42.668;23.356;2024-03-25T10:11:36;94334.69;;;10.71;47.20
84855;BME280;75112;42.668;23.356;2024-03-25T10:14:01;94309.72;;;10.65;46.21
84855;BME280;75112;42.668;23.356;2024-03-25T10:16:28;94354.19;;;11.42;45.98
84855;BME280;75112;42.668;23.356;2024-03-25T10:18:54;94319.84;;;11.35;43.40
84855;BME280;75112;42.668;23.356;2024-03-25T10:21:22;94336.53;;;11.39;44.33
84855;BME280;75112;42.668;23.356;2024-03-25T10:23:51;94344.00;;;11.69;44.27
84855;BME280;75112;42.668;23.356;2024-03-25T10:26:28;94349.94;;;11.36;42.41
84855;BME280;75112;42.668;23.356;2024-03-25T10:29:04;94353.28;;;11.08;45.11
84855;BME280;75112;42.668;23.356;2024-03-25T10:31:31;94339.97;;;10.88;44.37
84855;BME280;75112;42.668;23.356;2024-03-25T10:33:57;94337.56;;;11.72;46.12
84855;BME280;75112;42.668;23.356;2024-03-25T10:36:23;94342.66;;;11.95;42.81
84855;BME280;75112;42.668;23.356;2024-03-25T10:38:54;94343.94;;;11.81;40.96
84855;BME280;75112;42.668;23.356;2024-03-25T10:41:20;94351.47;;;11.49;41.51
84855;BME280;75112;42.668;23.356;2024-03-25T10:43:47;94348.63;;;11.50;42.88
84855;BME280;75112;42.668;23.356;2024-03-25T10:46:17;94350.88;;;11.30;42.48
84855;BME280;75112;42.668;23.356;2024-03-25T10:48:48;94343.28;;;11.86;44.10
84855;BME280;75112;42.668;23.356;2024-03-25T10:51:20;94315.53;;;13.03;41.48
84855;BME280;75112;42.668;23.356;2024-03-25T10:53:46;94341.38;;;13.64;39.83
84855;BME280;75112;42.668;23.356;2024-03-25T10:56:12;94323.53;;;13.72;36.75
84855;BME280;75112;42.668;23.356;2024-03-25T10:58:40;94295.75;;;13.51;38.08
84855;BME280;75112;42.668;23.356;2024-03-25T11:01:09;94342.06;;;13.27;38.47
84855;BME280;75112;42.668;23.356;2024-03-25T11:03:36;94317.13;;;12.43;38.92
84855;BME280;75112;42.668;23.356;2024-03-25T11:06:01;94305.53;;;12.29;37.63
84855;BME280;75112;42.668;23.356;2024-03-25T11:08:31;94301.44;;;11.48;41.77
84855;BME280;75112;42.668;23.356;2024-03-25T11:10:58;94334.72;;;11.57;41.37
84855;BME280;75112;42.668;23.356;2024-03-25T11:13:23;94309.53;;;11.23;41.91
84855;BME280;75112;42.668;23.356;2024-03-25T11:15:49;94304.47;;;11.00;39.61
84855;BME280;75112;42.668;23.356;2024-03-25T11:18:22;94306.22;;;11.57;42.15
84855;BME280;75112;42.668;23.356;2024-03-25T11:21:04;94327.13;;;12.34;39.00
84855;BME280;75112;42.668;23.356;2024-03-25T11:23:49;94312.41;;;12.79;38.72
84855;BME280;75112;42.668;23.356;2024-03-25T11:26:22;94299.59;;;12.94;37.66
84855;BME280;75112;42.668;23.356;2024-03-25T11:28:49;94310.69;;;12.67;39.09
84855;BME280;75112;42.668;23.356;2024-03-25T11:31:15;94314.97;;;13.23;38.09
84855;BME280;75112;42.668;23.356;2024-03-25T11:33:41;94318.19;;;13.57;40.98
84855;BME280;75112;42.668;23.356;2024-03-25T11:36:07;94366.84;;;13.34;37.63
84855;BME280;75112;42.668;23.356;2024-03-25T11:38:33;94353.56;;;12.14;41.64
84855;BME280;75112;42.668;23.356;2024-03-25T11:40:59;94367.28;;;11.81;42.94
84855;BME280;75112;42.668;23.356;2024-03-25T11:43:25;94354.41;;;12.37;39.52
84855;BME280;75112;42.668;23.356;2024-03-25T11:45:51;94352.13;;;11.73;40.85
84855;BME280;75112;42.668;23.356;2024-03-25T11:48:18;94352.25;;;11.66;43.55
84855;BME280;75112;42.668;23.356;2024-03-25T11:50:47;94353.50;;;11.92;42.42
84855;BME280;75112;42.668;23.356;2024-03-25T11:53:13;94356.09;;;12.26;44.22
84855;BME280;75112;42.668;23.356;2024-03-25T11:55:40;94361.69;;;11.56;43.01
84855;BME280;75112;42.668;23.356;2024-03-25T11:58:07;94358.31;;;11.55;44.56
84855;BME280;75112;42.668;23.356;2024-03-25T12:00:33;94356.16;;;11.97;43.78
84855;BME280;75112;42.668;23.356;2024-03-25T12:02:58;94350.94;;;11.81;45.96
84855;BME280;75112;42.668;23.356;2024-03-25T12:05:24;94364.50;;;12.33;42.40
84855;BME280;75112;42.668;23.356;2024-03-25T12:07:50;94337.88;;;12.60;41.34
84855;BME280;75112;42.668;23.356;2024-03-25T12:10:16;94344.03;;;13.20;38.46
84855;BME280;75112;42.668;23.356;2024-03-25T12:13:00;94342.44;;;13.95;40.80
84855;BME280;75112;42.668;23.356;2024-03-25T12:15:25;94327.63;;;14.33;37.54
84855;BME280;75112;42.668;23.356;2024-03-25T12:17:52;94337.66;;;14.51;37.75
84855;BME280;75112;42.668;23.356;2024-03-25T12:20:17;94332.81;;;14.70;36.06
84855;BME280;75112;42.668;23.356;2024-03-25T12:22:44;94327.63;;;14.00;39.19
84855;BME280;75112;42.668;23.356;2024-03-25T12:25:10;94356.41;;;13.84;38.17
84855;BME280;75112;42.668;23.356;2024-03-25T12:27:36;94339.94;;;12.80;38.90
84855;BME280;75112;42.668;23.356;2024-03-25T12:30:03;94347.50;;;12.42;39.68
84855;BME280;75112;42.668;23.356;2024-03-25T12:32:40;94351.19;;;12.85;39.70
84855;BME280;75112;42.668;23.356;2024-03-25T12:35:09;94355.00;;;12.78;41.24
84855;BME280;75112;42.668;23.356;2024-03-25T12:37:36;94355.59;;;13.07;39.29
84855;BME280;75112;42.668;23.356;2024-03-25T12:40:02;94341.13;;;13.16;40.31
84855;BME280;75112;42.668;23.356;2024-03-25T12:42:29;94349.84;;;13.05;39.10
84855;BME280;75112;42.668;23.356;2024-03-25T12:44:55;94354.84;;;13.11;40.48
84855;BME280;75112;42.668;23.356;2024-03-25T12:47:21;94347.38;;;13.15;38.36
84855;BME280;75112;42.668;23.356;2024-03-25T12:49:47;94345.84;;;13.19;38.77
84855;BME280;75112;42.668;23.356;2024-03-25T12:52:12;94359.25;;;13.11;37.89
84855;BME280;75112;42.668;23.356;2024-03-25T12:54:37;94365.28;;;12.34;37.68
84855;BME280;75112;42.668;23.356;2024-03-25T12:57:04;94368.06;;;12.10;39.43
84855;BME280;75112;42.668;23.356;2024-03-25T12:59:30;94359.69;;;11.91;39.10
84855;BME280;75112;42.668;23.356;2024-03-25T13:01:55;94376.44;;;11.55;41.08
84855;BME280;75112;42.668;23.356;2024-03-25T13:04:21;94379.28;;;12.33;40.45
84855;BME280;75112;42.668;23.356;2024-03-25T13:06:46;94361.53;;;12.63;40.06
84855;BME280;75112;42.668;23.356;2024-03-25T13:09:12;94338.38;;;13.01;39.91
84855;BME280;75112;42.668;23.356;2024-03-25T13:11:37;94365.09;;;13.99;37.77
84855;BME280;75112;42.668;23.356;2024-03-25T13:14:03;94329.69;;;13.93;35.71
84855;BME280;75112;42.668;23.356;2024-03-25T13:16:32;94333.44;;;13.48;34.65